createdAt,value
2017-08-21T00:03:37.361Z,96473
2017-08-21T00:09:07.007Z,96458
2017-08-21T00:14:35.166Z,96463
2017-08-21T00:20:03.306Z,96492
2017-08-21T00:25:31.591Z,96465
2017-08-21T00:30:59.744Z,96472
2017-08-21T00:36:27.942Z,96474
2017-08-21T00:41:56.916Z,96464
2017-08-21T00:47:25.933Z,96457
2017-08-21T00:52:54.112Z,96468
2017-08-21T00:58:22.268Z,96463
2017-08-21T01:03:50.420Z,96446
2017-08-21T01:09:18.599Z,96470
2017-08-21T01:14:46.783Z,96449
2017-08-21T01:20:14.935Z,96446
2017-08-21T01:25:43.851Z,96441
2017-08-21T01:31:14.074Z,96446
2017-08-21T01:36:42.220Z,96440
2017-08-21T01:42:10.396Z,96444
2017-08-21T01:47:38.553Z,96444
2017-08-21T01:53:06.692Z,96422
2017-08-21T01:58:34.843Z,96421
2017-08-21T02:04:02.991Z,96431
2017-08-21T02:09:31.244Z,96431
2017-08-21T02:14:59.391Z,96426
2017-08-21T02:20:27.534Z,96415
2017-08-21T02:25:55.680Z,96424
2017-08-21T02:31:23.848Z,96426
2017-08-21T02:36:52.036Z,96423
2017-08-21T02:42:20.197Z,96424
2017-08-21T02:47:48.348Z,96424
2017-08-21T02:53:17.259Z,96427
2017-08-21T02:58:45.405Z,96431
2017-08-21T03:04:13.556Z,96425
2017-08-21T03:09:41.728Z,96414
2017-08-21T03:15:09.889Z,96407
2017-08-21T03:20:38.040Z,96403
2017-08-21T03:26:06.192Z,96396
2017-08-21T03:31:34.331Z,96388
2017-08-21T03:37:02.509Z,96396
2017-08-21T03:42:30.808Z,96391
2017-08-21T03:47:58.970Z,96378
2017-08-21T03:53:27.169Z,96388
2017-08-21T03:58:56.299Z,96399
2017-08-21T04:04:24.447Z,96413
2017-08-21T04:09:52.694Z,96413
2017-08-21T04:15:20.877Z,96426
2017-08-21T04:20:49.052Z,96427
2017-08-21T04:26:17.205Z,96416
2017-08-21T04:31:45.363Z,96409
2017-08-21T04:37:13.531Z,96438
2017-08-21T04:42:42.457Z,96435
2017-08-21T04:48:10.610Z,96410
2017-08-21T04:53:38.743Z,96418
2017-08-21T04:59:06.912Z,96414
2017-08-21T05:04:35.064Z,96414
2017-08-21T05:10:03.246Z,96422
2017-08-21T05:15:31.393Z,96411
2017-08-21T05:20:59.532Z,96434
2017-08-21T05:26:27.692Z,96437
2017-08-21T05:31:55.830Z,96426
2017-08-21T05:37:24.796Z,96439
2017-08-21T05:42:52.935Z,96418
2017-08-21T05:48:21.153Z,96436
2017-08-21T05:53:49.310Z,96435
2017-08-21T05:59:17.469Z,96445
2017-08-21T06:04:45.618Z,96425
2017-08-21T06:10:13.986Z,96447
2017-08-21T06:15:42.120Z,96455
2017-08-21T06:21:11.037Z,96457
2017-08-21T06:26:39.180Z,96448
2017-08-21T06:32:07.337Z,96452
2017-08-21T06:37:35.490Z,96456
2017-08-21T06:43:03.642Z,96462
2017-08-21T06:48:31.782Z,96453
2017-08-21T06:54:00.704Z,96455
2017-08-21T06:59:28.843Z,96458
2017-08-21T07:04:56.982Z,96453
2017-08-21T07:10:25.920Z,96462
2017-08-21T07:15:54.079Z,96453
2017-08-21T07:21:22.256Z,96466
2017-08-21T07:26:50.424Z,96463
2017-08-21T07:32:19.348Z,96461
2017-08-21T07:37:47.510Z,96464
2017-08-21T07:43:15.712Z,96480
2017-08-21T07:48:44.625Z,96478
2017-08-21T07:54:12.797Z,96471
2017-08-21T07:59:40.993Z,96477
2017-08-21T08:05:09.147Z,96479
2017-08-21T08:10:37.312Z,96480
2017-08-21T08:16:05.463Z,96479
2017-08-21T08:21:33.616Z,96489
2017-08-21T08:27:01.770Z,96496
2017-08-21T08:32:29.912Z,96494
2017-08-21T08:37:58.094Z,96488
2017-08-21T08:43:26.269Z,96478
2017-08-21T08:48:54.447Z,96472
2017-08-21T08:54:22.587Z,96470
2017-08-21T08:59:50.738Z,96467
2017-08-21T09:05:18.879Z,96468
2017-08-21T09:10:47.022Z,96467
2017-08-21T09:16:15.478Z,96468
2017-08-21T09:21:43.636Z,96458
2017-08-21T09:27:11.794Z,96455
2017-08-21T09:32:39.935Z,96454
2017-08-21T09:38:08.084Z,96447
2017-08-21T09:43:36.996Z,96450
2017-08-21T09:49:05.150Z,96449
2017-08-21T09:54:33.436Z,96442
2017-08-21T10:00:01.588Z,96446
2017-08-21T10:05:29.745Z,96444
2017-08-21T10:10:57.917Z,96439
2017-08-21T10:16:26.097Z,96441
2017-08-21T10:21:54.268Z,96434
2017-08-21T10:27:22.438Z,96440
2017-08-21T10:32:50.583Z,96433
2017-08-21T10:38:19.492Z,96427
2017-08-21T10:43:47.641Z,96433
2017-08-21T10:49:15.800Z,96430
2017-08-21T10:54:43.954Z,96422
2017-08-21T11:00:12.105Z,96414
2017-08-21T11:05:40.253Z,96413
2017-08-21T11:11:08.414Z,96421
2017-08-21T11:16:36.554Z,96417
2017-08-21T11:22:05.465Z,96415
2017-08-21T11:27:33.620Z,96411
2017-08-21T11:33:01.766Z,96402
2017-08-21T11:38:29.925Z,96396
2017-08-21T11:43:58.089Z,96399
2017-08-21T11:49:26.261Z,96408
2017-08-21T11:54:54.402Z,96393
2017-08-21T12:00:22.560Z,96404
2017-08-21T12:05:50.732Z,96397
2017-08-21T12:11:18.871Z,96393
2017-08-21T12:16:47.012Z,96387
2017-08-21T12:22:15.164Z,96382
2017-08-21T12:27:43.298Z,96381
2017-08-21T12:33:11.471Z,96362
2017-08-21T12:38:39.644Z,96369
2017-08-21T12:44:07.800Z,96358
2017-08-21T12:49:35.952Z,96355
2017-08-21T12:55:04.108Z,96353
2017-08-21T13:00:32.255Z,96354
2017-08-21T13:06:00.404Z,96354
2017-08-21T13:11:28.561Z,96343
2017-08-21T13:16:56.725Z,96335
2017-08-21T13:22:24.867Z,96334
2017-08-21T13:27:53.943Z,96324
2017-08-21T13:33:22.108Z,96325
2017-08-21T13:38:50.277Z,96323
2017-08-21T13:44:18.457Z,96312
2017-08-21T13:49:47.368Z,96318
2017-08-21T13:55:15.515Z,96324
2017-08-21T14:00:43.651Z,96301
2017-08-21T14:06:12.606Z,96308
2017-08-21T14:11:40.766Z,96295
2017-08-21T14:17:08.921Z,96302
2017-08-21T14:22:37.055Z,96287
2017-08-21T14:28:05.191Z,96287
2017-08-21T14:33:33.324Z,96259
2017-08-21T14:39:01.481Z,96288
2017-08-21T14:44:29.627Z,96223
2017-08-21T14:49:57.777Z,96275
2017-08-21T14:55:26.705Z,96221
2017-08-21T15:00:54.894Z,96234
2017-08-21T15:06:23.830Z,96261
2017-08-21T15:11:52.079Z,96292
2017-08-21T15:17:20.370Z,96291
2017-08-21T15:22:48.506Z,96288
2017-08-21T15:28:16.651Z,96290
2017-08-21T15:33:45.640Z,96282
2017-08-21T15:39:13.816Z,96298
2017-08-21T15:44:41.994Z,96286
2017-08-21T15:50:10.135Z,96306
2017-08-21T15:55:38.279Z,96302
2017-08-21T16:01:06.424Z,96294
2017-08-21T16:06:34.582Z,96301
2017-08-21T16:12:03.124Z,96299
2017-08-21T16:17:32.227Z,96303
2017-08-21T16:23:00.378Z,96295
2017-08-21T16:28:28.524Z,96297
2017-08-21T16:33:56.694Z,96292
2017-08-21T16:39:24.840Z,96305
2017-08-21T16:44:54.321Z,96308
2017-08-21T16:50:22.577Z,96302
2017-08-21T16:55:50.801Z,96306
2017-08-21T17:01:18.956Z,96304
2017-08-21T17:06:47.090Z,96305
2017-08-21T17:12:15.643Z,96287
2017-08-21T17:17:43.774Z,96289
2017-08-21T17:23:11.910Z,96298
2017-08-21T17:28:40.054Z,96304
2017-08-21T17:34:08.217Z,96304
2017-08-21T17:39:36.382Z,96309
2017-08-21T17:45:04.540Z,96320
2017-08-21T17:50:32.684Z,96325
2017-08-21T17:56:00.852Z,96332
2017-08-21T18:01:29.004Z,96349
2017-08-21T18:06:57.165Z,96334
2017-08-21T18:12:25.793Z,96353
2017-08-21T18:17:54.014Z,96337
2017-08-21T18:23:22.212Z,96344
2017-08-21T18:28:50.381Z,96344
2017-08-21T18:34:18.551Z,96344
2017-08-21T18:40:30.781Z,96351
2017-08-21T18:45:58.922Z,96369
2017-08-21T18:51:27.073Z,96368
2017-08-21T18:56:55.251Z,96377
2017-08-21T19:02:23.447Z,96379
2017-08-21T19:07:51.635Z,96375
2017-08-21T19:13:19.816Z,96386
2017-08-21T19:18:47.982Z,96380
2017-08-21T19:24:16.142Z,96382
2017-08-21T19:29:44.286Z,96378
2017-08-21T19:35:12.431Z,96381
2017-08-21T19:40:40.580Z,96373
2017-08-21T19:46:08.728Z,96385
2017-08-21T19:51:36.899Z,96377
2017-08-21T19:57:05.067Z,96384
2017-08-21T20:02:33.271Z,96392
2017-08-21T20:08:01.448Z,96381
2017-08-21T20:13:29.611Z,96383
2017-08-21T20:18:57.838Z,96379
2017-08-21T20:24:26.080Z,96382
2017-08-21T20:29:54.304Z,96385
2017-08-21T20:35:22.474Z,96392
2017-08-21T20:40:50.640Z,96389
2017-08-21T20:46:18.820Z,96382
2017-08-21T20:51:46.982Z,96379
2017-08-21T20:57:15.278Z,96381
2017-08-21T21:02:44.593Z,96378
2017-08-21T21:08:12.810Z,96383
2017-08-21T21:13:40.977Z,96384
2017-08-21T21:19:09.981Z,96389
2017-08-21T21:24:38.118Z,96385
2017-08-21T21:30:06.280Z,96385
2017-08-21T21:35:34.435Z,96379
2017-08-21T21:41:02.574Z,96376
2017-08-21T21:46:30.732Z,96378
2017-08-21T21:51:58.887Z,96370
2017-08-21T21:57:27.044Z,96369
2017-08-21T22:02:56.012Z,96356
2017-08-21T22:08:24.188Z,96365
2017-08-21T22:13:52.357Z,96363
2017-08-21T22:19:20.526Z,96357
2017-08-21T22:24:48.662Z,96357
2017-08-21T22:30:16.806Z,96369
2017-08-21T22:35:44.969Z,96365
2017-08-21T22:41:13.133Z,96359
2017-08-21T22:46:41.293Z,96361
2017-08-21T22:52:09.434Z,96355
2017-08-21T22:57:37.586Z,96348
2017-08-21T23:03:05.946Z,96340
2017-08-21T23:08:38.814Z,96348
2017-08-21T23:14:07.428Z,96339
2017-08-21T23:19:35.759Z,96336
2017-08-21T23:25:03.918Z,96334
2017-08-21T23:30:32.050Z,96334
2017-08-21T23:36:00.199Z,96324
2017-08-21T23:41:28.372Z,96317
2017-08-21T23:46:56.586Z,96312
2017-08-21T23:52:24.735Z,96306
2017-08-21T23:57:52.875Z,96295
